sensor_id;sensor_type;location;lat;lon;timestamp;pressure;altitude;pressure_sealevel;temperature;humidity
38612;BME280;24368;52.156;20.788;2024-01-25T00:00:50;98917.46;;;3.09;100.00
38612;BME280;24368;52.156;20.788;2024-01-25T00:06:12;98927.33;;;3.07;100.00
38612;BME280;24368;52.156;20.788;2024-01-25T00:11:13;98933.63;;;3.03;100.00
38612;BME280;24368;52.156;20.788;2024-01-25T00:16:15;98945.82;;;2.94;100.00
38612;BME280;24368;52.156;20.788;2024-01-25T00:21:17;98944.55;;;2.79;100.00
38612;BME280;24368;52.156;20.788;2024-01-25T00:26:19;98932.20;;;2.69;100.00
38612;BME280;24368;52.156;20.788;2024-01-25T00:31:21;98928.84;;;2.62;100.00
38612;BME280;24368;52.156;20.788;2024-01-25T00:36:23;98936.34;;;2.58;100.00
38612;BME280;24368;52.156;20.788;2024-01-25T00:41:25;98932.03;;;2.65;100.00
38612;BME280;24368;52.156;20.788;2024-01-25T00:46:27;98939.48;;;2.69;100.00
38612;BME280;24368;52.156;20.788;2024-01-25T00:51:30;98932.30;;;2.72;100.00
38612;BME280;24368;52.156;20.788;2024-01-25T00:56:32;98930.70;;;2.73;100.00
38612;BME280;24368;52.156;20.788;2024-01-25T01:01:34;98931.92;;;2.75;100.00
38612;BME280;24368;52.156;20.788;2024-01-25T01:06:36;98936.68;;;2.77;100.00
38612;BME280;24368;52.156;20.788;2024-01-25T01:11:38;98932.69;;;2.78;100.00
38612;BME280;24368;52.156;20.788;2024-01-25T01:16:40;98944.23;;;2.81;100.00
38612;BME280;24368;52.156;20.788;2024-01-25T01:21:43;98932.25;;;2.73;100.00
38612;BME280;24368;52.156;20.788;2024-01-25T01:26:45;98919.77;;;2.66;100.00
38612;BME280;24368;52.156;20.788;2024-01-25T01:31:48;98923.41;;;2.62;100.00
38612;BME280;24368;52.156;20.788;2024-01-25T01:36:49;98922.98;;;2.64;100.00
38612;BME280;24368;52.156;20.788;2024-01-25T01:41:51;98924.73;;;2.61;100.00
38612;BME280;24368;52.156;20.788;2024-01-25T01:46:53;98940.48;;;2.62;100.00
38612;BME280;24368;52.156;20.788;2024-01-25T01:51:56;98924.46;;;2.61;100.00
38612;BME280;24368;52.156;20.788;2024-01-25T01:56:58;98926.33;;;2.55;100.00
38612;BME280;24368;52.156;20.788;2024-01-25T02:02:00;98930.64;;;2.58;100.00
38612;BME280;24368;52.156;20.788;2024-01-25T02:07:02;98930.80;;;2.58;100.00
38612;BME280;24368;52.156;20.788;2024-01-25T02:12:05;98918.95;;;2.52;100.00
38612;BME280;24368;52.156;20.788;2024-01-25T02:17:07;98916.73;;;2.50;100.00
38612;BME280;24368;52.156;20.788;2024-01-25T02:22:08;98913.95;;;2.50;100.00
38612;BME280;24368;52.156;20.788;2024-01-25T02:27:11;98918.40;;;2.51;100.00
38612;BME280;24368;52.156;20.788;2024-01-25T02:32:13;98931.20;;;2.42;100.00
38612;BME280;24368;52.156;20.788;2024-01-25T02:37:14;98929.77;;;2.35;100.00
38612;BME280;24368;52.156;20.788;2024-01-25T02:42:16;98937.67;;;2.32;100.00
38612;BME280;24368;52.156;20.788;2024-01-25T02:47:18;98945.59;;;2.29;100.00
38612;BME280;24368;52.156;20.788;2024-01-25T02:52:20;98949.81;;;2.22;100.00
38612;BME280;24368;52.156;20.788;2024-01-25T02:57:22;98947.91;;;2.14;100.00
38612;BME280;24368;52.156;20.788;2024-01-25T03:02:24;98958.13;;;2.06;100.00
38612;BME280;24368;52.156;20.788;2024-01-25T03:07:26;98948.52;;;2.01;100.00
38612;BME280;24368;52.156;20.788;2024-01-25T03:12:28;98955.42;;;2.00;100.00
38612;BME280;24368;52.156;20.788;2024-01-25T03:17:30;98955.10;;;1.95;100.00
38612;BME280;24368;52.156;20.788;2024-01-25T03:22:31;98960.38;;;1.93;100.00
38612;BME280;24368;52.156;20.788;2024-01-25T03:27:33;98951.40;;;1.90;100.00
38612;BME280;24368;52.156;20.788;2024-01-25T03:32:35;98966.75;;;1.89;100.00
38612;BME280;24368;52.156;20.788;2024-01-25T03:37:37;98974.17;;;1.88;100.00
38612;BME280;24368;52.156;20.788;2024-01-25T03:42:39;98971.32;;;1.85;100.00
38612;BME280;24368;52.156;20.788;2024-01-25T03:47:40;98964.13;;;1.84;100.00
38612;BME280;24368;52.156;20.788;2024-01-25T03:52:42;98972.77;;;1.82;100.00
38612;BME280;24368;52.156;20.788;2024-01-25T03:57:45;98972.11;;;1.80;100.00
38612;BME280;24368;52.156;20.788;2024-01-25T04:02:46;98967.86;;;1.77;100.00
38612;BME280;24368;52.156;20.788;2024-01-25T04:07:48;98957.33;;;1.74;100.00
38612;BME280;24368;52.156;20.788;2024-01-25T04:12:50;98963.68;;;1.71;100.00
38612;BME280;24368;52.156;20.788;2024-01-25T04:17:52;98970.52;;;1.66;100.00
38612;BME280;24368;52.156;20.788;2024-01-25T04:22:58;98982.41;;;1.67;100.00
38612;BME280;24368;52.156;20.788;2024-01-25T04:27:59;98983.64;;;1.71;100.00
38612;BME280;24368;52.156;20.788;2024-01-25T04:33:02;98984.23;;;1.72;100.00
38612;BME280;24368;52.156;20.788;2024-01-25T04:38:04;98986.86;;;1.71;100.00
38612;BME280;24368;52.156;20.788;2024-01-25T04:43:06;98989.34;;;1.73;100.00
38612;BME280;24368;52.156;20.788;2024-01-25T04:48:07;98989.17;;;1.76;100.00
38612;BME280;24368;52.156;20.788;2024-01-25T04:53:09;98984.59;;;1.72;100.00
38612;BME280;24368;52.156;20.788;2024-01-25T04:58:11;98989.54;;;1.73;100.00
38612;BME280;24368;52.156;20.788;2024-01-25T05:03:13;98993.98;;;1.78;100.00
38612;BME280;24368;52.156;20.788;2024-01-25T05:08:15;98992.82;;;1.77;100.00
38612;BME280;24368;52.156;20.788;2024-01-25T05:13:17;98998.91;;;1.81;100.00
38612;BME280;24368;52.156;20.788;2024-01-25T05:18:18;99004.80;;;1.79;100.00
38612;BME280;24368;52.156;20.788;2024-01-25T05:23:20;99003.30;;;1.78;100.00
38612;BME280;24368;52.156;20.788;2024-01-25T05:28:22;99001.23;;;1.76;100.00
38612;BME280;24368;52.156;20.788;2024-01-25T05:33:25;99001.20;;;1.77;100.00
38612;BME280;24368;52.156;20.788;2024-01-25T05:38:27;99003.52;;;1.80;100.00
38612;BME280;24368;52.156;20.788;2024-01-25T05:43:29;99001.73;;;1.81;100.00
38612;BME280;24368;52.156;20.788;2024-01-25T05:48:31;99003.49;;;1.82;100.00
38612;BME280;24368;52.156;20.788;2024-01-25T05:53:32;99005.17;;;1.81;100.00
38612;BME280;24368;52.156;20.788;2024-01-25T05:58:34;99008.66;;;1.79;100.00
38612;BME280;24368;52.156;20.788;2024-01-25T06:03:36;99028.50;;;1.80;100.00
38612;BME280;24368;52.156;20.788;2024-01-25T06:08:38;99025.19;;;1.78;100.00
38612;BME280;24368;52.156;20.788;2024-01-25T06:13:40;99024.35;;;1.80;100.00
38612;BME280;24368;52.156;20.788;2024-01-25T06:18:41;99035.26;;;1.83;100.00
38612;BME280;24368;52.156;20.788;2024-01-25T06:23:43;99041.23;;;1.82;100.00
38612;BME280;24368;52.156;20.788;2024-01-25T06:28:45;99036.67;;;1.80;100.00
38612;BME280;24368;52.156;20.788;2024-01-25T06:33:47;99037.27;;;1.79;100.00
38612;BME280;24368;52.156;20.788;2024-01-25T06:38:51;99033.00;;;1.76;100.00
38612;BME280;24368;52.156;20.788;2024-01-25T06:43:53;99028.27;;;1.79;100.00
38612;BME280;24368;52.156;20.788;2024-01-25T06:48:55;99029.60;;;1.76;100.00
38612;BME280;24368;52.156;20.788;2024-01-25T06:53:57;99035.56;;;1.66;100.00
38612;BME280;24368;52.156;20.788;2024-01-25T06:58:59;99043.00;;;1.62;100.00
38612;BME280;24368;52.156;20.788;2024-01-25T07:04:02;99050.33;;;1.60;100.00
38612;BME280;24368;52.156;20.788;2024-01-25T07:09:05;99048.59;;;1.48;100.00
38612;BME280;24368;52.156;20.788;2024-01-25T07:14:07;99053.15;;;1.45;100.00
38612;BME280;24368;52.156;20.788;2024-01-25T07:19:09;99055.20;;;1.45;100.00
38612;BME280;24368;52.156;20.788;2024-01-25T07:24:11;99056.50;;;1.45;100.00
38612;BME280;24368;52.156;20.788;2024-01-25T07:29:13;99066.15;;;1.50;100.00
38612;BME280;24368;52.156;20.788;2024-01-25T07:34:14;99071.92;;;1.49;100.00
38612;BME280;24368;52.156;20.788;2024-01-25T07:39:16;99072.36;;;1.46;100.00
38612;BME280;24368;52.156;20.788;2024-01-25T07:44:18;99080.67;;;1.48;100.00
38612;BME280;24368;52.156;20.788;2024-01-25T07:49:21;99079.05;;;1.47;100.00
38612;BME280;24368;52.156;20.788;2024-01-25T07:54:24;99084.08;;;1.43;100.00
38612;BME280;24368;52.156;20.788;2024-01-25T07:59:26;99090.48;;;1.45;100.00
38612;BME280;24368;52.156;20.788;2024-01-25T08:04:27;99089.58;;;1.45;100.00
38612;BME280;24368;52.156;20.788;2024-01-25T08:09:29;99096.45;;;1.52;100.00
38612;BME280;24368;52.156;20.788;2024-01-25T08:14:31;99096.95;;;1.55;100.00
38612;BME280;24368;52.156;20.788;2024-01-25T08:19:33;99105.66;;;1.57;100.00
38612;BME280;24368;52.156;20.788;2024-01-25T08:24:35;99101.86;;;1.60;100.00
38612;BME280;24368;52.156;20.788;2024-01-25T08:29:37;99104.71;;;1.59;100.00
38612;BME280;24368;52.156;20.788;2024-01-25T08:34:39;99113.59;;;1.63;100.00
38612;BME280;24368;52.156;20.788;2024-01-25T08:39:40;99111.77;;;1.66;100.00
38612;BME280;24368;52.156;20.788;2024-01-25T08:44:42;99109.30;;;1.65;100.00
38612;BME280;24368;52.156;20.788;2024-01-25T08:49:50;99117.44;;;1.67;100.00
38612;BME280;24368;52.156;20.788;2024-01-25T08:54:52;99126.92;;;1.70;100.00
38612;BME280;24368;52.156;20.788;2024-01-25T08:59:54;99140.63;;;1.68;100.00
38612;BME280;24368;52.156;20.788;2024-01-25T09:04:56;99137.78;;;1.69;100.00
38612;BME280;24368;52.156;20.788;2024-01-25T09:09:58;99139.16;;;1.67;100.00
38612;BME280;24368;52.156;20.788;2024-01-25T09:15:00;99161.75;;;1.67;100.00
38612;BME280;24368;52.156;20.788;2024-01-25T09:20:02;99178.58;;;1.65;100.00
38612;BME280;24368;52.156;20.788;2024-01-25T09:25:05;99183.95;;;1.65;100.00
38612;BME280;24368;52.156;20.788;2024-01-25T09:30:07;99195.41;;;1.65;100.00
38612;BME280;24368;52.156;20.788;2024-01-25T09:35:09;99201.45;;;1.67;100.00
38612;BME280;24368;52.156;20.788;2024-01-25T09:40:12;99204.02;;;1.70;100.00
38612;BME280;24368;52.156;20.788;2024-01-25T09:45:17;99207.39;;;1.71;100.00
38612;BME280;24368;52.156;20.788;2024-01-25T09:50:20;99214.12;;;1.72;100.00
38612;BME280;24368;52.156;20.788;2024-01-25T09:55:24;99227.77;;;1.73;100.00
38612;BME280;24368;52.156;20.788;2024-01-25T10:00:26;99234.05;;;1.75;100.00
38612;BME280;24368;52.156;20.788;2024-01-25T10:05:28;99239.11;;;1.78;100.00
38612;BME280;24368;52.156;20.788;2024-01-25T10:10:32;99242.61;;;1.80;100.00
38612;BME280;24368;52.156;20.788;2024-01-25T10:15:35;99249.10;;;1.82;100.00
38612;BME280;24368;52.156;20.788;2024-01-25T10:20:37;99253.89;;;1.85;100.00
38612;BME280;24368;52.156;20.788;2024-01-25T10:25:38;99266.17;;;1.87;100.00
38612;BME280;24368;52.156;20.788;2024-01-25T10:30:41;99268.34;;;1.90;100.00
38612;BME280;24368;52.156;20.788;2024-01-25T10:35:43;99281.21;;;1.88;100.00
38612;BME280;24368;52.156;20.788;2024-01-25T10:40:52;99275.80;;;1.84;100.00
38612;BME280;24368;52.156;20.788;2024-01-25T10:45:55;99279.79;;;1.89;100.00
38612;BME280;24368;52.156;20.788;2024-01-25T10:50:59;99290.59;;;1.95;100.00
38612;BME280;24368;52.156;20.788;2024-01-25T10:56:04;99287.65;;;2.01;100.00
38612;BME280;24368;52.156;20.788;2024-01-25T11:01:10;99293.80;;;2.04;100.00
38612;BME280;24368;52.156;20.788;2024-01-25T11:06:14;99287.46;;;2.09;100.00
38612;BME280;24368;52.156;20.788;2024-01-25T11:11:18;99295.27;;;2.13;100.00
38612;BME280;24368;52.156;20.788;2024-01-25T11:16:28;99290.79;;;2.17;100.00
38612;BME280;24368;52.156;20.788;2024-01-25T11:21:42;99294.34;;;2.25;100.00
38612;BME280;24368;52.156;20.788;2024-01-25T11:26:45;99302.73;;;2.35;100.00
38612;BME280;24368;52.156;20.788;2024-01-25T11:31:49;99304.24;;;2.40;100.00
38612;BME280;24368;52.156;20.788;2024-01-25T11:36:52;99306.98;;;2.40;100.00
38612;BME280;24368;52.156;20.788;2024-01-25T11:41:54;99320.20;;;2.34;100.00
38612;BME280;24368;52.156;20.788;2024-01-25T11:46:56;99332.89;;;2.28;100.00
38612;BME280;24368;52.156;20.788;2024-01-25T11:51:58;99332.68;;;2.22;100.00
38612;BME280;24368;52.156;20.788;2024-01-25T11:57:00;99347.80;;;2.15;100.00
38612;BME280;24368;52.156;20.788;2024-01-25T12:02:03;99354.13;;;2.12;100.00
38612;BME280;24368;52.156;20.788;2024-01-25T12:07:05;99359.39;;;2.13;100.00
38612;BME280;24368;52.156;20.788;2024-01-25T12:12:09;99359.53;;;2.16;100.00
38612;BME280;24368;52.156;20.788;2024-01-25T12:17:12;99363.72;;;2.18;100.00
38612;BME280;24368;52.156;20.788;2024-01-25T12:22:20;99372.78;;;2.22;100.00
38612;BME280;24368;52.156;20.788;2024-01-25T12:27:23;99386.22;;;2.22;100.00
38612;BME280;24368;52.156;20.788;2024-01-25T12:32:25;99385.44;;;2.16;100.00
38612;BME280;24368;52.156;20.788;2024-01-25T12:37:27;99400.33;;;2.04;100.00
38612;BME280;24368;52.156;20.788;2024-01-25T12:42:29;99398.67;;;1.92;100.00
38612;BME280;24368;52.156;20.788;2024-01-25T12:47:31;99423.83;;;1.86;100.00
38612;BME280;24368;52.156;20.788;2024-01-25T12:52:33;99431.77;;;1.80;100.00
38612;BME280;24368;52.156;20.788;2024-01-25T12:57:35;99447.33;;;1.81;100.00
38612;BME280;24368;52.156;20.788;2024-01-25T13:02:38;99471.29;;;1.76;100.00
38612;BME280;24368;52.156;20.788;2024-01-25T13:07:40;99482.80;;;1.51;100.00
38612;BME280;24368;52.156;20.788;2024-01-25T13:12:42;99492.05;;;1.39;100.00
38612;BME280;24368;52.156;20.788;2024-01-25T13:17:43;99494.94;;;1.24;100.00
38612;BME280;24368;52.156;20.788;2024-01-25T13:22:45;99499.11;;;1.10;100.00
38612;BME280;24368;52.156;20.788;2024-01-25T13:27:47;99498.39;;;1.01;100.00
38612;BME280;24368;52.156;20.788;2024-01-25T13:32:49;99511.40;;;1.01;100.00
38612;BME280;24368;52.156;20.788;2024-01-25T13:37:51;99507.65;;;1.00;100.00
38612;BME280;24368;52.156;20.788;2024-01-25T13:42:53;99520.23;;;0.99;100.00
38612;BME280;24368;52.156;20.788;2024-01-25T13:47:56;99532.26;;;0.91;100.00
38612;BME280;24368;52.156;20.788;2024-01-25T13:52:58;99539.89;;;0.82;100.00
38612;BME280;24368;52.156;20.788;2024-01-25T13:58:00;99545.05;;;0.80;100.00
38612;BME280;24368;52.156;20.788;2024-01-25T14:03:03;99556.97;;;0.78;100.00
38612;BME280;24368;52.156;20.788;2024-01-25T14:08:05;99570.02;;;0.69;100.00
38612;BME280;24368;52.156;20.788;2024-01-25T14:13:07;99587.35;;;0.67;100.00
38612;BME280;24368;52.156;20.788;2024-01-25T14:18:09;99594.86;;;0.67;100.00
38612;BME280;24368;52.156;20.788;2024-01-25T14:23:11;99599.64;;;0.60;100.00
38612;BME280;24368;52.156;20.788;2024-01-25T14:28:13;99609.69;;;0.60;100.00
38612;BME280;24368;52.156;20.788;2024-01-25T14:33:15;99617.84;;;0.56;100.00
38612;BME280;24368;52.156;20.788;2024-01-25T14:38:17;99634.04;;;0.52;100.00
38612;BME280;24368;52.156;20.788;2024-01-25T14:43:18;99639.70;;;0.55;100.00
38612;BME280;24368;52.156;20.788;2024-01-25T14:48:20;99648.10;;;0.47;100.00
38612;BME280;24368;52.156;20.788;2024-01-25T14:53:22;99661.73;;;0.43;100.00
38612;BME280;24368;52.156;20.788;2024-01-25T14:58:24;99670.80;;;0.42;100.00
38612;BME280;24368;52.156;20.788;2024-01-25T15:03:26;99681.81;;;0.33;100.00
38612;BME280;24368;52.156;20.788;2024-01-25T15:08:28;99686.51;;;0.17;100.00
38612;BME280;24368;52.156;20.788;2024-01-25T15:13:30;99696.23;;;0.12;100.00
38612;BME280;24368;52.156;20.788;2024-01-25T15:18:32;99706.39;;;0.05;100.00
38612;BME280;24368;52.156;20.788;2024-01-25T15:23:33;99722.98;;;-0.07;100.00
38612;BME280;24368;52.156;20.788;2024-01-25T15:28:35;99733.58;;;-0.15;100.00
38612;BME280;24368;52.156;20.788;2024-01-25T15:33:37;99748.98;;;-0.20;100.00
38612;BME280;24368;52.156;20.788;2024-01-25T15:38:39;99761.23;;;-0.15;100.00
38612;BME280;24368;52.156;20.788;2024-01-25T15:43:43;99764.56;;;-0.15;100.00
38612;BME280;24368;52.156;20.788;2024-01-25T15:48:45;99775.36;;;-0.14;100.00
38612;BME280;24368;52.156;20.788;2024-01-25T15:53:47;99787.16;;;-0.09;100.00
38612;BME280;24368;52.156;20.788;2024-01-25T15:58:49;99787.64;;;-0.06;100.00
38612;BME280;24368;52.156;20.788;2024-01-25T16:03:51;99799.30;;;-0.01;100.00
38612;BME280;24368;52.156;20.788;2024-01-25T16:08:53;99806.96;;;-0.02;100.00
38612;BME280;24368;52.156;20.788;2024-01-25T16:13:58;99821.94;;;-0.06;100.00
38612;BME280;24368;52.156;20.788;2024-01-25T16:19:00;99828.11;;;-0.05;100.00
38612;BME280;24368;52.156;20.788;2024-01-25T16:24:02;99834.56;;;-0.06;100.00
38612;BME280;24368;52.156;20.788;2024-01-25T16:29:06;99839.71;;;-0.07;100.00
38612;BME280;24368;52.156;20.788;2024-01-25T16:34:08;99839.86;;;-0.07;100.00
38612;BME280;24368;52.156;20.788;2024-01-25T16:39:10;99854.91;;;-0.04;100.00
38612;BME280;24368;52.156;20.788;2024-01-25T16:44:12;99862.61;;;-0.05;100.00
38612;BME280;24368;52.156;20.788;2024-01-25T16:49:13;99866.81;;;-0.09;100.00
38612;BME280;24368;52.156;20.788;2024-01-25T16:54:15;99868.02;;;-0.11;100.00
38612;BME280;24368;52.156;20.788;2024-01-25T16:59:17;99878.84;;;-0.07;100.00
38612;BME280;24368;52.156;20.788;2024-01-25T17:04:19;99886.72;;;-0.11;100.00
38612;BME280;24368;52.156;20.788;2024-01-25T17:09:21;99897.55;;;-0.13;100.00
38612;BME280;24368;52.156;20.788;2024-01-25T17:14:23;99905.23;;;-0.14;100.00
38612;BME280;24368;52.156;20.788;2024-01-25T17:19:25;99923.88;;;-0.13;100.00
38612;BME280;24368;52.156;20.788;2024-01-25T17:24:27;99929.42;;;-0.13;100.00
38612;BME280;24368;52.156;20.788;2024-01-25T17:29:29;99933.95;;;-0.11;100.00
38612;BME280;24368;52.156;20.788;2024-01-25T17:34:33;99944.30;;;-0.07;100.00
38612;BME280;24368;52.156;20.788;2024-01-25T17:39:35;99956.66;;;-0.06;100.00
38612;BME280;24368;52.156;20.788;2024-01-25T17:44:39;99963.14;;;-0.04;100.00
38612;BME280;24368;52.156;20.788;2024-01-25T17:49:41;99966.13;;;-0.02;100.00
38612;BME280;24368;52.156;20.788;2024-01-25T17:54:43;99974.30;;;0.03;100.00
38612;BME280;24368;52.156;20.788;2024-01-25T17:59:45;99982.00;;;0.05;100.00
38612;BME280;24368;52.156;20.788;2024-01-25T18:04:48;99985.86;;;0.06;100.00
38612;BME280;24368;52.156;20.788;2024-01-25T18:09:49;99985.90;;;0.09;100.00
38612;BME280;24368;52.156;20.788;2024-01-25T18:14:51;100003.70;;;0.04;100.00
38612;BME280;24368;52.156;20.788;2024-01-25T18:19:53;100020.77;;;-0.03;100.00
38612;BME280;24368;52.156;20.788;2024-01-25T18:24:55;100030.48;;;-0.07;100.00
38612;BME280;24368;52.156;20.788;2024-01-25T18:29:56;100034.86;;;-0.16;100.00
38612;BME280;24368;52.156;20.788;2024-01-25T18:34:58;100036.58;;;-0.18;100.00
38612;BME280;24368;52.156;20.788;2024-01-25T18:40:00;100037.05;;;-0.29;100.00
38612;BME280;24368;52.156;20.788;2024-01-25T18:45:06;100034.13;;;-0.32;100.00
38612;BME280;24368;52.156;20.788;2024-01-25T18:50:08;100030.45;;;-0.37;100.00
38612;BME280;24368;52.156;20.788;2024-01-25T18:55:10;100031.30;;;-0.37;100.00
38612;BME280;24368;52.156;20.788;2024-01-25T19:00:13;100039.66;;;-0.44;100.00
38612;BME280;24368;52.156;20.788;2024-01-25T19:05:15;100046.30;;;-0.51;100.00
38612;BME280;24368;52.156;20.788;2024-01-25T19:10:18;100052.61;;;-0.52;100.00
38612;BME280;24368;52.156;20.788;2024-01-25T19:15:19;100058.30;;;-0.51;100.00
38612;BME280;24368;52.156;20.788;2024-01-25T19:20:21;100063.27;;;-0.54;100.00
38612;BME280;24368;52.156;20.788;2024-01-25T19:25:24;100070.34;;;-0.62;100.00
38612;BME280;24368;52.156;20.788;2024-01-25T19:30:25;100074.48;;;-0.70;100.00
38612;BME280;24368;52.156;20.788;2024-01-25T19:35:28;100078.86;;;-0.78;100.00
38612;BME280;24368;52.156;20.788;2024-01-25T19:40:29;100081.20;;;-0.85;100.00
38612;BME280;24368;52.156;20.788;2024-01-25T19:45:31;100080.41;;;-0.90;100.00
38612;BME280;24368;52.156;20.788;2024-01-25T19:50:33;100082.40;;;-0.91;100.00
38612;BME280;24368;52.156;20.788;2024-01-25T19:55:35;100080.48;;;-0.91;100.00
38612;BME280;24368;52.156;20.788;2024-01-25T20:00:37;100082.47;;;-0.92;100.00
38612;BME280;24368;52.156;20.788;2024-01-25T20:05:40;100093.15;;;-0.94;100.00
38612;BME280;24368;52.156;20.788;2024-01-25T20:10:42;100101.28;;;-0.95;100.00
38612;BME280;24368;52.156;20.788;2024-01-25T20:15:45;100115.17;;;-0.99;100.00
38612;BME280;24368;52.156;20.788;2024-01-25T20:20:46;100120.45;;;-1.01;100.00
38612;BME280;24368;52.156;20.788;2024-01-25T20:25:48;100125.23;;;-0.96;100.00
38612;BME280;24368;52.156;20.788;2024-01-25T20:30:50;100127.27;;;-0.98;100.00
38612;BME280;24368;52.156;20.788;2024-01-25T20:35:52;100125.19;;;-0.95;100.00
38612;BME280;24368;52.156;20.788;2024-01-25T20:40:54;100123.44;;;-0.95;100.00
38612;BME280;24368;52.156;20.788;2024-01-25T20:45:55;100124.48;;;-0.98;100.00
38612;BME280;24368;52.156;20.788;2024-01-25T20:50:58;100127.78;;;-0.95;100.00
38612;BME280;24368;52.156;20.788;2024-01-25T20:55:59;100124.70;;;-0.96;100.00
38612;BME280;24368;52.156;20.788;2024-01-25T21:01:02;100130.11;;;-1.00;100.00
38612;BME280;24368;52.156;20.788;2024-01-25T21:06:05;100132.71;;;-0.97;100.00
38612;BME280;24368;52.156;20.788;2024-01-25T21:11:11;100146.02;;;-0.97;100.00
38612;BME280;24368;52.156;20.788;2024-01-25T21:16:15;100158.20;;;-0.95;100.00
38612;BME280;24368;52.156;20.788;2024-01-25T21:21:17;100165.98;;;-0.95;100.00
38612;BME280;24368;52.156;20.788;2024-01-25T21:26:19;100168.30;;;-0.93;100.00
38612;BME280;24368;52.156;20.788;2024-01-25T21:31:21;100162.70;;;-0.98;100.00
38612;BME280;24368;52.156;20.788;2024-01-25T21:36:23;100166.55;;;-0.99;100.00
38612;BME280;24368;52.156;20.788;2024-01-25T21:41:25;100161.62;;;-1.04;100.00
38612;BME280;24368;52.156;20.788;2024-01-25T21:46:26;100164.19;;;-1.06;100.00
38612;BME280;24368;52.156;20.788;2024-01-25T21:51:28;100161.43;;;-1.06;100.00
38612;BME280;24368;52.156;20.788;2024-01-25T21:56:30;100168.93;;;-1.11;100.00
38612;BME280;24368;52.156;20.788;2024-01-25T22:01:32;100176.50;;;-1.10;100.00
38612;BME280;24368;52.156;20.788;2024-01-25T22:06:33;100186.99;;;-1.09;100.00
38612;BME280;24368;52.156;20.788;2024-01-25T22:11:35;100197.53;;;-1.06;100.00
38612;BME280;24368;52.156;20.788;2024-01-25T22:16:37;100208.11;;;-1.10;100.00
38612;BME280;24368;52.156;20.788;2024-01-25T22:21:39;100215.17;;;-1.09;100.00
38612;BME280;24368;52.156;20.788;2024-01-25T22:26:41;100220.52;;;-1.12;100.00
38612;BME280;24368;52.156;20.788;2024-01-25T22:31:43;100227.77;;;-1.15;100.00
38612;BME280;24368;52.156;20.788;2024-01-25T22:36:47;100227.00;;;-1.11;100.00
38612;BME280;24368;52.156;20.788;2024-01-25T22:41:49;100232.29;;;-1.09;100.00
38612;BME280;24368;52.156;20.788;2024-01-25T22:46:50;100242.09;;;-1.11;100.00
38612;BME280;24368;52.156;20.788;2024-01-25T22:51:53;100252.61;;;-1.17;100.00
38612;BME280;24368;52.156;20.788;2024-01-25T22:56:55;100257.93;;;-1.13;100.00
38612;BME280;24368;52.156;20.788;2024-01-25T23:01:57;100266.38;;;-1.16;100.00
38612;BME280;24368;52.156;20.788;2024-01-25T23:06:59;100268.37;;;-1.18;100.00
38612;BME280;24368;52.156;20.788;2024-01-25T23:12:00;100277.16;;;-1.17;100.00
38612;BME280;24368;52.156;20.788;2024-01-25T23:17:03;100281.52;;;-1.15;100.00
38612;BME280;24368;52.156;20.788;2024-01-25T23:22:06;100296.02;;;-1.14;100.00
38612;BME280;24368;52.156;20.788;2024-01-25T23:27:09;100302.27;;;-1.11;100.00
38612;BME280;24368;52.156;20.788;2024-01-25T23:32:12;100306.34;;;-1.13;100.00
38612;BME280;24368;52.156;20.788;2024-01-25T23:37:15;100322.13;;;-1.14;100.00
38612;BME280;24368;52.156;20.788;2024-01-25T23:42:16;100325.58;;;-1.14;100.00
38612;BME280;24368;52.156;20.788;2024-01-25T23:47:18;100329.20;;;-1.14;100.00
38612;BME280;24368;52.156;20.788;2024-01-25T23:52:20;100334.69;;;-1.19;100.00
38612;BME280;24368;52.156;20.788;2024-01-25T23:57:22;100339.75;;;-1.18;100.00
